Time;durP1;ratioP1;P1;durP2;ratioP2;P2;SDS_P1;SDS_P2;PMS_P1;PMS_P2;Temp;Humidity;BMP_temperature;BMP_pressure;BME280_temperature;BME280_humidity;BME280_pressure;Samples;Min_cycle;Max_cycle;Signal;HPM_P1;HPM_P2
2021/04/21 00:00:09;;;;;;;9.03;6.40;;;8.20;99.90;;;;;;5058289;28;20918;-52
2021/04/21 00:02:40;;;;;;;8.80;5.93;;;8.20;99.90;;;;;;5060138;28;20464;-52
2021/04/21 00:05:09;;;;;;;7.83;6.00;;;8.20;99.90;;;;;;5052025;28;20446;-52
2021/04/21 00:07:37;;;;;;;9.07;6.13;;;8.40;99.90;;;;;;5051856;28;20445;-52
2021/04/21 00:10:07;;;;;;;8.07;5.90;;;8.30;99.90;;;;;;5064268;28;20470;-52
2021/04/21 00:12:34;;;;;;;9.03;6.07;;;8.10;99.90;;;;;;5052077;28;20503;-53
2021/04/21 00:15:02;;;;;;;7.87;6.10;;;8.20;99.90;;;;;;5055190;28;20471;-52
2021/04/21 00:17:28;;;;;;;7.33;5.70;;;8.30;99.90;;;;;;5072104;28;20449;-52
2021/04/21 00:19:57;;;;;;;7.70;5.60;;;8.30;99.90;;;;;;5072007;28;20562;-52
2021/04/21 00:22:27;;;;;;;7.90;5.60;;;8.40;99.90;;;;;;5054749;28;20991;-52
2021/04/21 00:24:54;;;;;;;8.87;6.20;;;8.30;99.90;;;;;;5055191;28;20477;-52
2021/04/21 00:27:24;;;;;;;12.30;6.30;;;8.50;99.90;;;;;;5055132;28;20443;-52
2021/04/21 00:29:55;;;;;;;9.87;6.17;;;8.50;99.90;;;;;;5054894;28;20496;-52
2021/04/21 00:32:24;;;;;;;7.10;5.93;;;8.40;99.90;;;;;;5054341;28;20457;-53
2021/04/21 00:34:55;;;;;;;6.77;5.60;;;8.40;99.90;;;;;;5054997;28;20538;-52
2021/04/21 00:37:25;;;;;;;6.70;5.53;;;8.30;99.90;;;;;;5071342;28;20449;-52
2021/04/21 00:39:52;;;;;;;9.63;5.10;;;8.40;99.90;;;;;;5074902;28;20474;-52
2021/04/21 00:42:26;;;;;;;8.00;4.50;;;8.40;99.90;;;;;;5058079;28;20463;-52
2021/04/21 00:45:01;;;;;;;7.67;5.07;;;8.40;99.90;;;;;;5055251;28;20453;-52
2021/04/21 00:47:41;;;;;;;6.50;4.73;;;8.20;99.90;;;;;;5054738;28;20832;-52
2021/04/21 00:50:11;;;;;;;6.80;4.97;;;8.10;99.90;;;;;;5055600;28;20892;-52
2021/04/21 00:52:48;;;;;;;7.40;5.27;;;8.00;99.90;;;;;;5053387;28;20830;-52
2021/04/21 00:55:20;;;;;;;7.40;5.00;;;8.00;99.90;;;;;;5052809;28;20479;-52
2021/04/21 00:57:57;;;;;;;9.77;6.73;;;7.90;99.90;;;;;;5055521;28;20458;-52
2021/04/21 01:00:28;;;;;;;7.87;5.50;;;7.80;99.90;;;;;;5070924;28;20945;-52
2021/04/21 01:02:57;;;;;;;7.77;5.80;;;7.70;99.90;;;;;;5048729;28;20452;-51
2021/04/21 01:05:26;;;;;;;11.10;6.17;;;7.60;99.90;;;;;;5051072;28;20452;-52
2021/04/21 01:07:58;;;;;;;7.60;6.00;;;7.40;99.90;;;;;;5051023;28;20453;-52
2021/04/21 01:10:29;;;;;;;7.40;6.27;;;7.40;99.90;;;;;;5063222;28;20982;-52
2021/04/21 01:12:59;;;;;;;7.00;5.30;;;7.50;99.90;;;;;;5045205;28;20475;-52
2021/04/21 01:15:26;;;;;;;8.83;5.80;;;7.50;99.90;;;;;;5050979;28;20484;-52
2021/04/21 01:17:54;;;;;;;9.67;5.80;;;7.50;99.90;;;;;;5050993;28;20455;-52
2021/04/21 01:20:29;;;;;;;8.03;5.90;;;7.50;99.90;;;;;;5051089;28;20453;-52
2021/04/21 01:23:35;;;;;;;8.73;6.00;;;7.50;99.90;;;;;;5066951;28;20511;-52
2021/04/21 01:26:31;;;;;;;9.33;6.37;;;7.50;99.90;;;;;;5029663;28;20453;-53
2021/04/21 01:29:01;;;;;;;10.70;6.07;;;7.50;99.90;;;;;;5033374;28;20516;-52
2021/04/21 01:31:30;;;;;;;9.20;6.60;;;7.50;99.90;;;;;;5058650;28;20532;-52
2021/04/21 01:34:00;;;;;;;7.73;6.13;;;7.40;99.90;;;;;;5075151;28;20454;-52
2021/04/21 01:36:29;;;;;;;10.27;6.60;;;7.30;99.90;;;;;;5074603;28;21156;-52
2021/04/21 01:39:00;;;;;;;14.13;6.53;;;7.30;99.90;;;;;;5073059;28;20524;-52
2021/04/21 01:41:30;;;;;;;9.30;6.50;;;7.50;99.90;;;;;;5055039;28;20449;-52
2021/04/21 01:44:02;;;;;;;9.13;6.63;;;7.30;99.90;;;;;;5054387;28;20461;-51
2021/04/21 01:46:32;;;;;;;9.50;7.23;;;7.10;99.90;;;;;;5055633;28;20875;-51
2021/04/21 01:49:06;;;;;;;8.60;6.40;;;7.00;99.90;;;;;;5049616;28;20465;-52
2021/04/21 01:51:37;;;;;;;9.07;7.17;;;7.00;99.90;;;;;;5055535;28;20602;-52
2021/04/21 01:54:11;;;;;;;9.40;6.43;;;6.70;99.90;;;;;;5069368;28;20454;-52
2021/04/21 01:56:43;;;;;;;9.33;7.03;;;6.50;99.90;;;;;;5074482;28;20509;-52
2021/04/21 01:59:21;;;;;;;9.10;6.70;;;6.60;99.90;;;;;;5060455;28;21054;-51
2021/04/21 02:01:52;;;;;;;10.90;7.47;;;6.70;99.90;;;;;;5053621;28;20555;-52
2021/04/21 02:04:31;;;;;;;10.37;7.50;;;6.50;99.90;;;;;;5054015;28;20494;-52
2021/04/21 02:07:11;;;;;;;10.47;6.80;;;6.60;99.90;;;;;;5054079;28;20494;-52
2021/04/21 02:10:00;;;;;;;9.30;7.10;;;6.60;99.90;;;;;;5039294;28;20832;-52
2021/04/21 02:12:54;;;;;;;11.07;7.03;;;6.60;99.90;;;;;;5052526;28;20505;-52
2021/04/21 02:15:33;;;;;;;9.47;6.53;;;6.60;99.90;;;;;;5057238;28;21077;-52
2021/04/21 02:18:05;;;;;;;8.27;6.03;;;6.60;99.90;;;;;;5056993;28;20513;-52
2021/04/21 02:20:39;;;;;;;9.70;6.90;;;6.60;99.90;;;;;;5064455;28;20456;-51
2021/04/21 02:23:11;;;;;;;9.40;5.97;;;6.60;99.90;;;;;;5073372;28;20856;-52
2021/04/21 02:25:55;;;;;;;9.43;6.90;;;6.60;99.90;;;;;;5056696;28;20452;-52
2021/04/21 02:28:28;;;;;;;9.47;6.50;;;6.60;99.90;;;;;;5033044;28;21076;-52
2021/04/21 02:31:05;;;;;;;9.40;6.40;;;6.40;99.90;;;;;;5050903;28;20531;-52
2021/04/21 02:33:38;;;;;;;10.10;7.00;;;6.40;99.90;;;;;;5052453;28;20961;-52
2021/04/21 02:36:10;;;;;;;9.93;6.63;;;6.40;99.90;;;;;;5054664;28;20534;-52
2021/04/21 02:38:41;;;;;;;11.43;6.73;;;6.50;99.90;;;;;;5052820;28;20490;-52
2021/04/21 02:41:12;;;;;;;7.97;6.20;;;6.50;99.90;;;;;;5052536;28;20483;-52
2021/04/21 02:44:02;;;;;;;10.20;6.97;;;6.40;99.90;;;;;;5054047;28;20451;-52
2021/04/21 02:46:36;;;;;;;9.30;6.80;;;6.30;99.90;;;;;;5052518;28;20949;-52
2021/04/21 02:49:15;;;;;;;7.93;6.07;;;6.30;99.90;;;;;;5053705;28;20988;-52
2021/04/21 02:51:49;;;;;;;10.73;6.97;;;6.30;99.90;;;;;;5033388;28;20448;-52
2021/04/21 02:54:20;;;;;;;9.87;6.73;;;6.40;99.90;;;;;;5037252;28;20439;-52
2021/04/21 02:56:55;;;;;;;10.20;6.60;;;6.40;99.90;;;;;;5048742;28;20480;-52
2021/04/21 02:59:31;;;;;;;8.53;5.67;;;6.50;99.90;;;;;;5054847;28;20482;-52
2021/04/21 03:02:06;;;;;;;14.60;6.90;;;6.50;99.90;;;;;;5041971;28;20518;-51
2021/04/21 03:04:40;;;;;;;11.03;6.73;;;6.50;99.90;;;;;;5053122;28;20534;-52
2021/04/21 03:07:15;;;;;;;9.97;6.23;;;6.60;99.90;;;;;;5034954;28;20945;-52
2021/04/21 03:09:47;;;;;;;10.60;5.90;;;6.50;99.90;;;;;;5037236;28;20463;-51
2021/04/21 03:12:16;;;;;;;9.70;6.27;;;6.50;99.90;;;;;;5052703;28;20456;-51
2021/04/21 03:14:48;;;;;;;9.30;6.30;;;6.60;99.90;;;;;;5053661;28;20957;-51
2021/04/21 03:17:18;;;;;;;10.00;6.67;;;6.30;99.90;;;;;;5052846;28;20480;-51
2021/04/21 03:19:52;;;;;;;9.93;6.70;;;6.10;99.90;;;;;;5053471;28;20878;-51
2021/04/21 03:22:20;;;;;;;10.23;7.00;;;6.20;99.90;;;;;;5060937;28;20444;-52
2021/04/21 03:24:51;;;;;;;11.30;7.33;;;6.30;99.90;;;;;;5053637;28;20452;-51
2021/04/21 03:27:22;;;;;;;12.00;6.80;;;6.30;99.90;;;;;;5059366;28;20451;-52
2021/04/21 03:29:52;;;;;;;10.10;7.10;;;6.30;99.90;;;;;;5056152;28;20475;-51
2021/04/21 03:32:23;;;;;;;10.77;7.70;;;6.40;99.90;;;;;;5052216;28;20452;-51
2021/04/21 03:34:51;;;;;;;10.83;7.00;;;6.40;99.90;;;;;;5052183;28;20502;-51
2021/04/21 03:37:27;;;;;;;7.90;6.30;;;6.30;99.90;;;;;;5051967;28;20451;-51
2021/04/21 03:39:55;;;;;;;8.10;6.57;;;6.30;99.90;;;;;;5054339;28;20524;-51
2021/04/21 03:42:22;;;;;;;9.43;6.57;;;6.10;99.90;;;;;;5052066;28;20448;-51
2021/04/21 03:44:49;;;;;;;11.00;7.10;;;6.20;99.90;;;;;;5051533;28;20502;-51
2021/04/21 03:47:16;;;;;;;13.07;6.73;;;6.10;99.90;;;;;;5051765;28;20820;-51
2021/04/21 03:49:44;;;;;;;13.20;6.50;;;5.90;99.90;;;;;;5043719;28;20472;-51
2021/04/21 03:52:13;;;;;;;10.27;7.03;;;6.00;99.90;;;;;;5052118;28;20444;-51
2021/04/21 03:54:41;;;;;;;9.57;6.10;;;5.90;99.90;;;;;;5051890;28;21011;-51
2021/04/21 03:57:11;;;;;;;11.10;6.20;;;5.70;99.90;;;;;;5045727;28;20445;-51
2021/04/21 03:59:39;;;;;;;9.37;6.90;;;5.90;99.90;;;;;;5047298;28;20540;-51
2021/04/21 04:02:08;;;;;;;8.63;6.43;;;6.00;99.90;;;;;;5047289;28;20450;-50
2021/04/21 04:04:39;;;;;;;9.13;6.77;;;5.90;99.90;;;;;;5046399;28;20451;-51
2021/04/21 04:07:11;;;;;;;11.10;7.53;;;5.80;99.90;;;;;;5052134;28;20479;-51
2021/04/21 04:09:42;;;;;;;11.20;6.90;;;5.50;99.90;;;;;;5048707;28;20497;-51
2021/04/21 04:12:12;;;;;;;11.53;7.40;;;5.50;99.90;;;;;;5048717;28;20462;-51
2021/04/21 04:14:40;;;;;;;9.73;7.00;;;5.50;99.90;;;;;;5049155;28;20452;-51
2021/04/21 04:17:09;;;;;;;12.63;7.03;;;5.50;99.90;;;;;;5051101;28;20529;-51
2021/04/21 04:19:40;;;;;;;13.20;6.63;;;5.30;99.90;;;;;;5050833;28;20467;-52
2021/04/21 04:22:09;;;;;;;11.13;7.13;;;5.30;99.90;;;;;;5049720;28;20475;-51
2021/04/21 04:24:41;;;;;;;12.70;6.90;;;5.50;99.90;;;;;;5049515;28;20463;-51
2021/04/21 04:27:13;;;;;;;10.50;6.67;;;5.50;99.90;;;;;;5050641;28;20844;-51
2021/04/21 04:29:42;;;;;;;10.50;7.03;;;5.50;99.90;;;;;;5050916;28;20609;-51
2021/04/21 04:32:12;;;;;;;12.20;8.00;;;5.70;99.90;;;;;;5051104;28;20451;-51
2021/04/21 04:34:42;;;;;;;10.03;7.17;;;5.80;99.90;;;;;;5051585;28;20830;-51
2021/04/21 04:37:11;;;;;;;9.93;7.17;;;5.80;99.90;;;;;;5047342;28;20463;-51
2021/04/21 04:39:39;;;;;;;11.17;7.77;;;5.80;99.90;;;;;;5054309;28;20897;-51
2021/04/21 04:42:06;;;;;;;11.20;7.27;;;5.90;99.90;;;;;;5068510;28;20455;-51
2021/04/21 04:44:35;;;;;;;10.27;6.83;;;5.80;99.90;;;;;;5051831;28;20443;-51
2021/04/21 04:47:05;;;;;;;12.27;7.53;;;5.90;99.90;;;;;;5054308;28;20447;-51
2021/04/21 04:49:39;;;;;;;11.80;7.03;;;6.00;99.90;;;;;;5049852;28;20472;-51
2021/04/21 04:52:08;;;;;;;10.60;7.20;;;6.00;99.90;;;;;;5051116;28;21032;-51
2021/04/21 04:54:37;;;;;;;10.77;7.30;;;5.80;99.90;;;;;;5051486;28;20454;-51
2021/04/21 04:57:04;;;;;;;14.30;7.20;;;6.00;99.90;;;;;;5052878;28;20985;-51
2021/04/21 04:59:32;;;;;;;10.90;7.57;;;6.10;99.90;;;;;;5054269;28;20621;-51
2021/04/21 05:02:00;;;;;;;13.17;8.03;;;6.00;99.90;;;;;;5051307;28;20448;-51
2021/04/21 05:04:33;;;;;;;11.83;7.80;;;5.90;99.90;;;;;;5034897;28;20456;-51
2021/04/21 05:07:03;;;;;;;11.87;7.60;;;5.90;99.90;;;;;;5069750;22;20501;-52
2021/04/21 05:09:33;;;;;;;13.07;8.40;;;5.90;99.90;;;;;;5062713;28;20469;-52
2021/04/21 05:12:02;;;;;;;10.73;7.07;;;6.00;99.90;;;;;;5074928;28;20439;-52
2021/04/21 05:14:32;;;;;;;10.27;7.83;;;6.00;99.90;;;;;;5074706;28;20867;-51
2021/04/21 05:17:31;;;;;;;11.83;7.67;;;6.20;99.90;;;;;;5069403;28;20624;-51
2021/04/21 05:20:26;;;;;;;9.97;7.90;;;6.40;99.90;;;;;;5037495;28;20457;-51
2021/04/21 05:23:44;;;;;;;12.20;8.20;;;7.10;99.90;;;;;;5054493;28;20444;-51
2021/04/21 05:26:36;;;;;;;15.33;8.03;;;8.30;99.90;;;;;;5006881;28;20460;-52
2021/04/21 05:29:41;;;;;;;8.77;6.80;;;9.70;99.90;;;;;;5046885;28;20451;-51
2021/04/21 05:33:06;;;;;;;11.30;6.63;;;10.90;99.90;;;;;;5033188;28;20450;-52
2021/04/21 05:36:06;;;;;;;9.63;6.30;;;11.90;99.90;;;;;;5053497;28;20467;-52
2021/04/21 05:39:26;;;;;;;14.27;7.90;;;12.80;99.90;;;;;;5050214;28;20490;-51
2021/04/21 05:42:39;;;;;;;9.77;7.20;;;13.60;99.90;;;;;;5054148;28;20447;-51
2021/04/21 05:45:42;;;;;;;9.50;6.70;;;14.40;99.40;;;;;;5029910;28;20475;-52
2021/04/21 05:48:49;;;;;;;19.47;6.90;;;14.90;97.20;;;;;;5053305;28;20472;-51
2021/04/21 05:51:55;;;;;;;14.07;5.80;;;15.10;96.40;;;;;;5044494;28;20957;-51
2021/04/21 05:55:03;;;;;;;8.57;6.50;;;15.40;95.50;;;;;;5054924;28;20467;-50
2021/04/21 05:58:13;;;;;;;9.10;6.30;;;15.70;94.20;;;;;;5061839;28;20466;-50
2021/04/21 06:01:16;;;;;;;9.13;5.80;;;16.10;94.00;;;;;;5060920;28;21004;-52
2021/04/21 06:03:46;;;;;;;8.10;5.80;;;16.10;93.90;;;;;;5073791;28;20446;-52
2021/04/21 06:06:13;;;;;;;9.17;6.63;;;16.70;92.50;;;;;;5052809;28;20444;-52
2021/04/21 06:08:40;;;;;;;9.30;5.87;;;17.10;92.10;;;;;;5058462;28;20498;-52
2021/04/21 06:11:21;;;;;;;7.87;6.00;;;17.50;90.80;;;;;;5053131;28;20491;-52
2021/04/21 06:13:51;;;;;;;10.17;6.23;;;17.70;90.40;;;;;;5040611;28;20463;-52
2021/04/21 06:16:19;;;;;;;10.13;5.87;;;18.10;88.60;;;;;;5066361;28;20482;-52
2021/04/21 06:18:51;;;;;;;8.70;5.90;;;18.40;89.40;;;;;;5059056;28;20441;-52
2021/04/21 06:21:19;;;;;;;8.90;6.27;;;18.60;87.60;;;;;;5050376;28;20443;-53
2021/04/21 06:23:45;;;;;;;7.67;5.70;;;18.90;86.80;;;;;;5053502;28;20459;-52
2021/04/21 06:26:18;;;;;;;15.37;6.53;;;19.10;85.50;;;;;;5055327;28;20451;-53
2021/04/21 06:28:44;;;;;;;7.73;6.10;;;19.30;83.30;;;;;;5053269;28;20451;-52
2021/04/21 06:31:13;;;;;;;8.50;6.03;;;19.60;83.70;;;;;;5052252;28;20501;-52
2021/04/21 06:33:43;;;;;;;9.07;6.20;;;19.80;83.90;;;;;;5061231;28;20455;-53
2021/04/21 06:36:13;;;;;;;9.23;6.57;;;19.90;81.00;;;;;;5052525;28;20487;-52
2021/04/21 06:38:41;;;;;;;10.30;7.33;;;19.70;82.90;;;;;;5058189;28;20466;-52
2021/04/21 06:41:07;;;;;;;9.20;7.60;;;19.30;79.40;;;;;;5053028;28;20452;-52
2021/04/21 06:43:37;;;;;;;8.80;7.33;;;17.70;83.50;;;;;;5052847;28;20452;-53
2021/04/21 06:46:07;;;;;;;8.33;6.90;;;18.40;81.30;;;;;;5052630;28;20881;-52
2021/04/21 06:48:37;;;;;;;6.30;5.60;;;18.60;81.90;;;;;;5052456;28;20475;-53
2021/04/21 06:51:07;;;;;;;7.00;4.40;;;18.50;81.20;;;;;;5053444;28;20448;-52
2021/04/21 06:53:35;;;;;;;9.00;4.53;;;18.70;81.10;;;;;;5052830;28;20444;-53
2021/04/21 06:56:02;;;;;;;5.00;4.30;;;19.10;81.50;;;;;;5052882;28;20490;-53
2021/04/21 06:58:29;;;;;;;5.37;4.43;;;19.20;77.90;;;;;;5052519;28;20471;-52
2021/04/21 07:00:56;;;;;;;5.57;4.97;;;18.00;81.30;;;;;;5052615;28;20538;-53
2021/04/21 07:03:23;;;;;;;6.53;4.40;;;18.60;76.80;;;;;;5052557;28;20956;-53
2021/04/21 07:05:50;;;;;;;6.20;4.60;;;19.40;80.50;;;;;;5052706;28;20446;-53
2021/04/21 07:08:19;;;;;;;6.30;5.47;;;19.70;78.60;;;;;;5067565;28;20992;-52
2021/04/21 07:10:50;;;;;;;5.73;5.13;;;20.10;79.10;;;;;;5072360;28;20447;-52
2021/04/21 07:13:20;;;;;;;5.17;4.70;;;19.40;76.10;;;;;;5055273;28;20474;-52
2021/04/21 07:15:48;;;;;;;7.43;5.47;;;20.20;77.80;;;;;;5052293;28;20479;-52
2021/04/21 07:18:16;;;;;;;7.73;5.07;;;20.90;75.60;;;;;;5052367;28;20471;-51
2021/04/21 07:20:43;;;;;;;4.90;4.40;;;21.30;72.50;;;;;;5052053;28;20452;-52
2021/04/21 07:23:10;;;;;;;4.27;3.80;;;20.40;74.40;;;;;;5052353;28;20456;-51
2021/04/21 07:25:39;;;;;;;5.20;3.80;;;19.80;73.20;;;;;;5051664;28;20533;-53
2021/04/21 07:28:07;;;;;;;4.53;4.10;;;20.00;76.80;;;;;;5048843;28;20500;-53
2021/04/21 07:30:34;;;;;;;5.07;3.90;;;20.20;74.40;;;;;;5060182;28;20247;-51
2021/04/21 07:33:01;;;;;;;5.40;4.00;;;20.20;77.20;;;;;;5044709;28;20544;-52
2021/04/21 07:35:30;;;;;;;6.33;4.17;;;20.30;74.60;;;;;;5050343;28;20487;-51
2021/04/21 07:37:58;;;;;;;4.40;4.00;;;20.20;75.30;;;;;;5042568;28;20829;-52
2021/04/21 07:40:28;;;;;;;4.50;4.10;;;19.50;69.70;;;;;;5043125;28;20978;-51
2021/04/21 07:43:20;;;;;;;4.50;4.10;;;19.40;73.00;;;;;;5042706;28;20463;-52
2021/04/21 07:45:50;;;;;;;5.07;4.30;;;19.20;71.30;;;;;;5025775;28;20471;-51
2021/04/21 07:48:44;;;;;;;4.17;3.87;;;19.30;71.90;;;;;;5056885;28;20483;-51
2021/04/21 07:51:33;;;;;;;5.40;4.27;;;19.40;73.90;;;;;;5044607;28;20471;-52
2021/04/21 07:54:03;;;;;;;5.00;4.50;;;19.90;74.50;;;;;;5044711;28;20459;-52
2021/04/21 07:56:36;;;;;;;13.83;4.43;;;20.10;70.10;;;;;;5045441;28;20494;-52
2021/04/21 07:59:15;;;;;;;6.83;4.13;;;19.60;68.70;;;;;;5043566;28;20464;-52
2021/04/21 08:01:42;;;;;;;9.03;4.10;;;19.30;71.20;;;;;;5043605;28;20464;-52
2021/04/21 08:04:21;;;;;;;5.10;4.03;;;19.40;70.80;;;;;;5044700;28;20464;-51
2021/04/21 08:06:49;;;;;;;5.63;3.60;;;20.20;69.60;;;;;;5043373;28;20487;-52
2021/04/21 08:09:16;;;;;;;5.80;4.10;;;21.00;69.40;;;;;;5052378;28;20518;-52
2021/04/21 08:11:43;;;;;;;5.20;4.70;;;21.50;66.90;;;;;;5044613;28;20459;-52
2021/04/21 08:14:10;;;;;;;5.53;4.90;;;21.70;67.50;;;;;;5048693;28;20463;-53
2021/04/21 08:16:38;;;;;;;9.10;4.67;;;21.40;75.20;;;;;;5045138;28;20543;-51
2021/04/21 08:19:16;;;;;;;4.77;4.37;;;21.20;74.70;;;;;;5044324;28;20462;-51
2021/04/21 08:21:44;;;;;;;6.10;4.43;;;20.50;74.40;;;;;;5044270;28;20463;-51
2021/04/21 08:24:14;;;;;;;5.57;5.07;;;20.70;77.40;;;;;;5044573;28;20950;-52
2021/04/21 08:26:42;;;;;;;5.03;4.40;;;21.10;72.90;;;;;;5061162;28;20843;-53
2021/04/21 08:29:10;;;;;;;6.40;4.30;;;21.00;74.80;;;;;;5055623;28;20462;-52
2021/04/21 08:31:38;;;;;;;10.83;4.63;;;21.00;74.90;;;;;;5060705;28;20550;-52
2021/04/21 08:34:05;;;;;;;4.67;4.27;;;21.00;76.90;;;;;;5063806;28;20458;-53
2021/04/21 08:36:32;;;;;;;4.83;3.90;;;20.90;73.90;;;;;;5061480;28;20490;-52
2021/04/21 08:38:59;;;;;;;6.17;4.70;;;20.80;77.90;;;;;;5061491;28;20463;-53
2021/04/21 08:41:27;;;;;;;9.03;4.03;;;21.20;71.10;;;;;;5064345;28;20466;-53
2021/04/21 08:43:55;;;;;;;4.43;4.03;;;21.00;74.10;;;;;;5059460;28;20463;-53
2021/04/21 08:46:23;;;;;;;5.13;3.90;;;20.30;71.80;;;;;;5056915;28;20464;-53
2021/04/21 08:48:50;;;;;;;5.03;4.27;;;20.30;72.80;;;;;;5065360;28;20458;-53
2021/04/21 08:51:18;;;;;;;5.70;4.03;;;19.90;75.00;;;;;;5063512;28;20811;-53
2021/04/21 08:53:51;;;;;;;4.20;3.73;;;19.60;72.70;;;;;;5061942;28;20463;-53
2021/04/21 08:56:20;;;;;;;4.73;4.07;;;20.40;71.80;;;;;;5061411;28;20482;-52
2021/04/21 08:58:48;;;;;;;7.33;6.10;;;20.90;73.30;;;;;;5057918;28;20465;-52
2021/04/21 09:01:15;;;;;;;8.80;5.20;;;20.50;72.70;;;;;;5064050;28;20463;-52
2021/04/21 09:03:43;;;;;;;7.37;6.20;;;20.70;75.20;;;;;;5049878;28;20448;-53
2021/04/21 09:06:12;;;;;;;8.73;7.13;;;21.00;73.90;;;;;;5056370;28;20529;-53
2021/04/21 09:08:39;;;;;;;12.90;9.10;;;20.40;76.00;;;;;;5048617;28;20522;-52
2021/04/21 09:11:06;;;;;;;11.20;8.53;;;18.40;84.60;;;;;;5046834;28;20983;-53
2021/04/21 09:13:33;;;;;;;13.17;8.00;;;18.50;84.50;;;;;;5047158;28;20466;-53
2021/04/21 09:15:59;;;;;;;10.30;7.47;;;19.10;80.30;;;;;;5047000;28;20486;-52
2021/04/21 09:18:27;;;;;;;9.53;7.63;;;19.40;84.40;;;;;;5049863;28;20494;-53
2021/04/21 09:20:54;;;;;;;9.13;7.23;;;19.10;84.00;;;;;;5052083;28;20558;-53
2021/04/21 09:23:22;;;;;;;13.50;8.00;;;18.90;84.30;;;;;;5062383;28;20465;-53
2021/04/21 09:25:50;;;;;;;10.57;8.07;;;19.20;80.70;;;;;;5053828;28;20843;-54
2021/04/21 09:28:18;;;;;;;11.30;8.50;;;19.40;85.40;;;;;;5045217;28;20497;-53
2021/04/21 09:30:51;;;;;;;8.67;7.50;;;18.70;87.70;;;;;;5047475;28;20507;-52
2021/04/21 09:33:18;;;;;;;11.33;8.07;;;17.80;85.80;;;;;;5047266;28;20455;-53
2021/04/21 09:35:46;;;;;;;8.60;7.30;;;18.60;84.50;;;;;;5048451;28;20514;-53
2021/04/21 09:38:16;;;;;;;9.93;8.13;;;19.20;84.70;;;;;;5056602;28;20475;-54
2021/04/21 09:40:45;;;;;;;11.67;8.70;;;20.30;82.80;;;;;;5042148;28;20491;-54
2021/04/21 09:43:18;;;;;;;12.27;8.60;;;20.70;79.90;;;;;;5052272;28;20467;-52
2021/04/21 09:45:46;;;;;;;15.33;10.10;;;19.00;88.20;;;;;;5046851;28;20505;-52
2021/04/21 09:48:16;;;;;;;13.53;10.00;;;17.90;90.20;;;;;;5047583;28;20479;-52
2021/04/21 09:50:44;;;;;;;12.50;10.73;;;17.90;92.20;;;;;;5052651;28;20471;-52
2021/04/21 09:53:22;;;;;;;12.87;10.60;;;18.60;91.70;;;;;;5058000;28;20455;-52
2021/04/21 09:56:12;;;;;;;15.83;10.00;;;17.90;91.40;;;;;;5050004;28;20478;-52
2021/04/21 09:58:40;;;;;;;11.77;9.10;;;17.40;91.50;;;;;;5052765;28;20490;-52
2021/04/21 10:01:24;;;;;;;11.63;9.53;;;17.30;92.20;;;;;;5061174;28;20470;-52
2021/04/21 10:04:09;;;;;;;12.50;9.87;;;18.10;92.80;;;;;;5051169;28;20949;-53
2021/04/21 10:06:38;;;;;;;13.90;9.30;;;18.40;88.90;;;;;;5053860;28;20888;-53
2021/04/21 10:09:05;;;;;;;13.93;9.40;;;17.80;90.40;;;;;;5052407;28;20466;-53
2021/04/21 10:11:33;;;;;;;12.50;8.80;;;17.50;89.80;;;;;;5063303;28;20892;-53
2021/04/21 10:14:00;;;;;;;12.77;9.67;;;17.80;90.90;;;;;;5065233;28;20439;-52
2021/04/21 10:16:27;;;;;;;13.90;9.43;;;18.10;90.10;;;;;;5071366;28;20483;-52
2021/04/21 10:18:53;;;;;;;10.70;8.27;;;17.50;89.60;;;;;;5065164;28;20493;-52
2021/04/21 10:21:21;;;;;;;12.73;8.60;;;18.30;89.50;;;;;;5058630;28;20460;-53
2021/04/21 10:23:50;;;;;;;10.40;8.33;;;18.30;86.50;;;;;;5061228;28;20443;-52
2021/04/21 10:26:18;;;;;;;11.83;8.30;;;18.30;84.90;;;;;;5057278;28;20503;-53
2021/04/21 10:28:46;;;;;;;10.13;7.63;;;17.70;86.20;;;;;;5055280;28;20879;-53
2021/04/21 10:31:15;;;;;;;11.03;8.30;;;18.30;87.50;;;;;;5059212;28;21017;-53
2021/04/21 10:33:41;;;;;;;11.33;7.10;;;18.90;86.70;;;;;;5064283;28;20848;-53
2021/04/21 10:36:10;;;;;;;9.90;7.90;;;19.60;80.60;;;;;;5055679;28;20490;-52
2021/04/21 10:38:41;;;;;;;11.10;7.67;;;19.40;84.10;;;;;;5064174;28;20997;-53
2021/04/21 10:41:25;;;;;;;10.10;7.07;;;19.60;81.10;;;;;;5064624;28;20439;-52
2021/04/21 10:44:08;;;;;;;10.87;7.50;;;20.30;80.20;;;;;;5058241;28;20966;-53
2021/04/21 10:47:04;;;;;;;9.90;7.30;;;20.20;83.80;;;;;;5063870;28;21076;-52
2021/04/21 10:49:40;;;;;;;11.10;7.83;;;19.60;80.50;;;;;;5063100;28;20463;-53
2021/04/21 10:52:11;;;;;;;9.93;7.20;;;18.20;84.40;;;;;;5067723;28;20970;-52
2021/04/21 10:54:38;;;;;;;11.00;7.80;;;18.40;85.00;;;;;;5065159;28;20991;-52
2021/04/21 10:57:36;;;;;;;12.87;8.40;;;18.70;78.80;;;;;;5052396;28;20487;-52
2021/04/21 11:00:17;;;;;;;11.53;7.70;;;19.10;78.80;;;;;;5054472;28;20467;-53
2021/04/21 11:02:57;;;;;;;8.30;6.97;;;19.20;77.50;;;;;;5056324;28;20923;-52
2021/04/21 11:05:29;;;;;;;9.60;7.10;;;19.30;78.60;;;;;;5067526;28;20851;-53
2021/04/21 11:08:01;;;;;;;11.20;7.87;;;19.20;80.10;;;;;;5079720;22;20552;-54
2021/04/21 11:10:37;;;;;;;13.60;7.37;;;19.40;77.50;;;;;;5061896;28;20440;-54
2021/04/21 11:13:06;;;;;;;11.37;7.30;;;19.80;76.30;;;;;;5058440;28;20467;-54
2021/04/21 11:15:38;;;;;;;10.87;8.00;;;19.70;78.40;;;;;;5056325;28;20513;-53
2021/04/21 11:18:30;;;;;;;9.70;7.67;;;19.70;79.80;;;;;;5037528;28;20511;-54
2021/04/21 11:21:02;;;;;;;11.40;8.40;;;19.20;85.30;;;;;;5038062;28;20468;-54
2021/04/21 11:23:54;;;;;;;11.57;8.17;;;19.60;77.60;;;;;;5033468;28;20453;-55
2021/04/21 11:26:35;;;;;;;11.30;8.00;;;19.50;78.60;;;;;;5031098;28;20522;-54
2021/04/21 11:29:03;;;;;;;11.70;8.60;;;19.10;78.60;;;;;;5031127;28;20518;-54
2021/04/21 11:32:07;;;;;;;10.00;7.60;;;19.30;80.30;;;;;;5037584;28;20449;-54
2021/04/21 11:34:35;;;;;;;10.50;7.60;;;19.20;82.00;;;;;;5031503;28;20977;-54
2021/04/21 11:37:04;;;;;;;12.43;8.07;;;18.50;80.50;;;;;;5031481;28;20583;-53
2021/04/21 11:39:55;;;;;;;10.63;7.57;;;18.40;79.00;;;;;;5031134;28;20507;-54
2021/04/21 11:42:23;;;;;;;12.27;8.80;;;18.60;81.30;;;;;;5031471;28;20487;-54
2021/04/21 11:44:58;;;;;;;11.70;8.77;;;19.00;79.30;;;;;;5031264;28;20456;-54
2021/04/21 11:47:42;;;;;;;11.83;8.03;;;18.80;82.50;;;;;;5031056;28;20475;-53
2021/04/21 11:50:35;;;;;;;11.73;8.40;;;18.70;83.30;;;;;;5031387;28;20942;-53
2021/04/21 11:53:12;;;;;;;13.80;8.50;;;18.20;89.80;;;;;;5031290;28;20452;-53
2021/04/21 11:55:40;;;;;;;11.97;8.27;;;18.40;82.50;;;;;;5031206;28;20551;-53
2021/04/21 11:58:09;;;;;;;17.10;9.60;;;17.50;86.00;;;;;;5030697;28;20473;-53
2021/04/21 12:00:41;;;;;;;13.73;9.23;;;17.10;90.10;;;;;;5031070;28;21003;-53
2021/04/21 12:03:15;;;;;;;11.70;8.73;;;16.60;90.40;;;;;;5031365;28;20461;-54
2021/04/21 12:05:44;;;;;;;12.57;8.13;;;16.70;87.10;;;;;;5030989;28;20497;-54
2021/04/21 12:08:11;;;;;;;9.83;6.53;;;17.10;88.60;;;;;;5030647;28;20888;-54
2021/04/21 12:10:41;;;;;;;9.63;6.77;;;17.30;85.60;;;;;;5031368;28;20452;-54
2021/04/21 12:13:23;;;;;;;10.23;6.70;;;17.80;82.80;;;;;;5030898;28;20456;-54
2021/04/21 12:15:52;;;;;;;10.00;6.27;;;18.20;79.60;;;;;;5031141;28;20557;-54
2021/04/21 12:18:45;;;;;;;13.57;6.00;;;18.20;82.20;;;;;;5030797;28;20469;-53
2021/04/21 12:21:27;;;;;;;7.83;5.73;;;18.10;82.00;;;;;;5031141;28;20452;-54
2021/04/21 12:23:55;;;;;;;5.23;4.27;;;18.00;82.50;;;;;;5031136;28;20859;-54
2021/04/21 12:26:23;;;;;;;5.53;4.20;;;17.50;79.50;;;;;;5031210;28;20464;-54
2021/04/21 12:28:52;;;;;;;5.70;4.37;;;17.60;76.70;;;;;;5030229;28;20455;-53
2021/04/21 12:31:20;;;;;;;6.37;3.93;;;17.10;78.20;;;;;;5022488;28;20457;-54
2021/04/21 12:33:48;;;;;;;6.53;4.10;;;17.10;78.80;;;;;;5029766;28;20484;-54
2021/04/21 12:36:16;;;;;;;3.70;3.40;;;16.60;76.20;;;;;;5032628;28;20504;-53
2021/04/21 12:38:44;;;;;;;2.60;2.40;;;16.60;77.60;;;;;;5028583;28;20468;-53
2021/04/21 12:41:19;;;;;;;2.60;2.40;;;16.70;72.10;;;;;;5030615;28;20455;-54
2021/04/21 12:43:46;;;;;;;2.83;2.63;;;17.00;76.10;;;;;;5031146;28;20448;-54
2021/04/21 12:46:15;;;;;;;2.53;2.33;;;17.40;66.90;;;;;;5030666;28;20475;-54
2021/04/21 12:48:50;;;;;;;2.30;2.10;;;17.50;69.80;;;;;;5030680;28;20526;-54
2021/04/21 12:51:24;;;;;;;3.90;2.90;;;17.70;68.10;;;;;;5031015;28;20452;-54
2021/04/21 12:53:52;;;;;;;2.93;2.70;;;18.00;72.00;;;;;;5031025;28;20452;-53
2021/04/21 12:56:18;;;;;;;4.03;2.60;;;18.20;68.00;;;;;;5030615;28;20477;-54
2021/04/21 12:58:47;;;;;;;3.47;2.30;;;17.90;75.30;;;;;;5030647;28;20461;-54
2021/04/21 13:01:15;;;;;;;3.40;2.47;;;17.80;74.40;;;;;;5030976;28;20488;-54
2021/04/21 13:04:06;;;;;;;3.00;2.70;;;17.80;72.50;;;;;;5030788;28;20448;-54
2021/04/21 13:06:51;;;;;;;3.57;2.40;;;17.70;71.80;;;;;;5014893;28;20452;-54
2021/04/21 13:09:20;;;;;;;2.73;2.50;;;17.70;74.70;;;;;;5030630;28;20456;-54
2021/04/21 13:11:48;;;;;;;2.93;2.50;;;17.90;74.70;;;;;;5030392;28;20456;-54
2021/04/21 13:14:15;;;;;;;4.70;2.53;;;17.60;75.40;;;;;;5030706;28;20483;-54
2021/04/21 13:16:51;;;;;;;2.60;2.40;;;17.60;75.20;;;;;;5030320;28;20479;-54